sensor_id;sensor_type;location;lat;lon;timestamp;pressure;altitude;pressure_sealevel;temperature;humidity
21574;BME280;10948;48.706;9.258;2023-01-27T00:01:45;98032.19;;;0.31;100.00
21574;BME280;10948;48.706;9.258;2023-01-27T00:04:11;98024.16;;;-0.02;100.00
21574;BME280;10948;48.706;9.258;2023-01-27T00:06:36;98029.88;;;0.15;100.00
21574;BME280;10948;48.706;9.258;2023-01-27T00:09:01;98024.69;;;0.21;100.00
21574;BME280;10948;48.706;9.258;2023-01-27T00:11:27;98026.69;;;0.01;100.00
21574;BME280;10948;48.706;9.258;2023-01-27T00:14:11;98026.44;;;0.16;100.00
21574;BME280;10948;48.706;9.258;2023-01-27T00:16:36;98022.13;;;0.21;100.00
21574;BME280;10948;48.706;9.258;2023-01-27T00:19:02;98018.84;;;0.11;100.00
21574;BME280;10948;48.706;9.258;2023-01-27T00:21:27;98015.38;;;0.15;100.00
21574;BME280;10948;48.706;9.258;2023-01-27T00:24:11;98018.41;;;-0.16;100.00
21574;BME280;10948;48.706;9.258;2023-01-27T00:26:55;98018.16;;;0.02;100.00
21574;BME280;10948;48.706;9.258;2023-01-27T00:29:21;98016.38;;;0.07;100.00
21574;BME280;10948;48.706;9.258;2023-01-27T00:31:46;98021.19;;;0.25;100.00
21574;BME280;10948;48.706;9.258;2023-01-27T00:34:30;98010.22;;;0.17;100.00
21574;BME280;10948;48.706;9.258;2023-01-27T00:36:55;98020.72;;;0.00;100.00
21574;BME280;10948;48.706;9.258;2023-01-27T00:39:20;98022.38;;;0.03;100.00
21574;BME280;10948;48.706;9.258;2023-01-27T00:41:46;98014.72;;;0.03;100.00
21574;BME280;10948;48.706;9.258;2023-01-27T00:44:11;98019.84;;;0.03;100.00
21574;BME280;10948;48.706;9.258;2023-01-27T00:46:40;98019.69;;;0.12;100.00
21574;BME280;10948;48.706;9.258;2023-01-27T00:49:05;98013.91;;;-0.01;100.00
21574;BME280;10948;48.706;9.258;2023-01-27T00:51:30;98027.56;;;0.00;100.00
21574;BME280;10948;48.706;9.258;2023-01-27T00:53:56;98018.22;;;-0.04;100.00
21574;BME280;10948;48.706;9.258;2023-01-27T00:56:23;98027.34;;;0.12;100.00
21574;BME280;10948;48.706;9.258;2023-01-27T00:58:48;98024.69;;;0.21;100.00
21574;BME280;10948;48.706;9.258;2023-01-27T01:01:14;98026.47;;;0.13;100.00
21574;BME280;10948;48.706;9.258;2023-01-27T01:03:39;98026.69;;;-0.01;100.00
21574;BME280;10948;48.706;9.258;2023-01-27T01:06:07;98028.22;;;0.11;100.00
21574;BME280;10948;48.706;9.258;2023-01-27T01:08:33;98031.66;;;0.10;100.00
21574;BME280;10948;48.706;9.258;2023-01-27T01:10:58;98028.47;;;-0.06;100.00
21574;BME280;10948;48.706;9.258;2023-01-27T01:13:24;98031.56;;;0.17;100.00
21574;BME280;10948;48.706;9.258;2023-01-27T01:15:51;98026.59;;;0.07;100.00
21574;BME280;10948;48.706;9.258;2023-01-27T01:18:17;98023.38;;;-0.07;100.00
21574;BME280;10948;48.706;9.258;2023-01-27T01:20:43;98028.31;;;0.05;100.00
21574;BME280;10948;48.706;9.258;2023-01-27T01:23:08;98037.44;;;0.22;100.00
21574;BME280;10948;48.706;9.258;2023-01-27T01:25:38;98039.41;;;0.04;100.00
21574;BME280;10948;48.706;9.258;2023-01-27T01:28:04;98038.44;;;0.14;100.00
21574;BME280;10948;48.706;9.258;2023-01-27T01:30:29;98043.50;;;0.15;100.00
21574;BME280;10948;48.706;9.258;2023-01-27T01:32:55;98041.09;;;0.05;100.00
21574;BME280;10948;48.706;9.258;2023-01-27T01:35:21;98032.38;;;0.19;100.00
21574;BME280;10948;48.706;9.258;2023-01-27T01:37:48;98036.03;;;0.03;100.00
21574;BME280;10948;48.706;9.258;2023-01-27T01:40:14;98031.81;;;0.01;100.00
21574;BME280;10948;48.706;9.258;2023-01-27T01:42:47;98035.22;;;0.00;100.00
21574;BME280;10948;48.706;9.258;2023-01-27T01:47:55;98025.84;;;0.00;100.00
21574;BME280;10948;48.706;9.258;2023-01-27T01:50:20;98029.81;;;0.18;100.00
21574;BME280;10948;48.706;9.258;2023-01-27T01:52:46;98027.91;;;0.32;100.00
21574;BME280;10948;48.706;9.258;2023-01-27T01:55:11;98020.44;;;0.20;100.00
21574;BME280;10948;48.706;9.258;2023-01-27T01:57:36;98014.81;;;-0.05;100.00
21574;BME280;10948;48.706;9.258;2023-01-27T02:00:05;98018.69;;;0.22;100.00
21574;BME280;10948;48.706;9.258;2023-01-27T02:02:31;98018.88;;;0.10;100.00
21574;BME280;10948;48.706;9.258;2023-01-27T02:05:03;98011.19;;;0.10;100.00
21574;BME280;10948;48.706;9.258;2023-01-27T02:07:32;98011.00;;;0.22;100.00
21574;BME280;10948;48.706;9.258;2023-01-27T02:09:59;98005.81;;;0.28;100.00
21574;BME280;10948;48.706;9.258;2023-01-27T02:12:24;98007.84;;;0.05;100.00
21574;BME280;10948;48.706;9.258;2023-01-27T02:14:50;98002.09;;;-0.09;100.00
21574;BME280;10948;48.706;9.258;2023-01-27T02:17:15;98005.38;;;0.00;100.00
21574;BME280;10948;48.706;9.258;2023-01-27T02:22:35;98004.50;;;0.01;100.00
21574;BME280;10948;48.706;9.258;2023-01-27T02:25:10;98004.47;;;0.03;100.00
21574;BME280;10948;48.706;9.258;2023-01-27T02:27:39;97999.31;;;0.06;100.00
21574;BME280;10948;48.706;9.258;2023-01-27T02:30:04;98006.16;;;0.04;100.00
21574;BME280;10948;48.706;9.258;2023-01-27T02:32:30;98001.22;;;-0.08;100.00
21574;BME280;10948;48.706;9.258;2023-01-27T02:34:55;97997.63;;;0.05;100.00
21574;BME280;10948;48.706;9.258;2023-01-27T02:37:22;97992.66;;;-0.04;100.00
21574;BME280;10948;48.706;9.258;2023-01-27T02:39:49;97996.03;;;-0.02;100.00
21574;BME280;10948;48.706;9.258;2023-01-27T02:42:16;97992.91;;;-0.22;100.00
21574;BME280;10948;48.706;9.258;2023-01-27T02:44:41;98001.31;;;-0.13;100.00
21574;BME280;10948;48.706;9.258;2023-01-27T02:47:06;98004.63;;;-0.06;100.00
21574;BME280;10948;48.706;9.258;2023-01-27T02:49:32;98007.41;;;0.33;100.00
21574;BME280;10948;48.706;9.258;2023-01-27T02:51:57;97998.59;;;-0.02;100.00
21574;BME280;10948;48.706;9.258;2023-01-27T02:54:25;98002.72;;;0.08;100.00
21574;BME280;10948;48.706;9.258;2023-01-27T02:56:51;98002.38;;;0.27;100.00
21574;BME280;10948;48.706;9.258;2023-01-27T02:59:16;97996.81;;;0.01;100.00
21574;BME280;10948;48.706;9.258;2023-01-27T03:01:41;97995.25;;;-0.07;100.00
21574;BME280;10948;48.706;9.258;2023-01-27T03:04:07;97990.91;;;-0.02;100.00
21574;BME280;10948;48.706;9.258;2023-01-27T03:06:34;97993.59;;;-0.09;100.00
21574;BME280;10948;48.706;9.258;2023-01-27T03:08:59;97990.88;;;0.01;100.00
21574;BME280;10948;48.706;9.258;2023-01-27T03:11:24;97985.69;;;0.07;100.00
21574;BME280;10948;48.706;9.258;2023-01-27T03:14:08;97999.63;;;-0.15;100.00
21574;BME280;10948;48.706;9.258;2023-01-27T03:16:34;97992.66;;;-0.04;100.00
21574;BME280;10948;48.706;9.258;2023-01-27T03:19:17;97991.84;;;-0.06;100.00
21574;BME280;10948;48.706;9.258;2023-01-27T03:21:42;97991.06;;;-0.11;100.00
21574;BME280;10948;48.706;9.258;2023-01-27T03:24:09;97997.72;;;-0.01;100.00
21574;BME280;10948;48.706;9.258;2023-01-27T03:26:34;98000.09;;;0.09;100.00
21574;BME280;10948;48.706;9.258;2023-01-27T03:29:02;97995.00;;;0.09;100.00
21574;BME280;10948;48.706;9.258;2023-01-27T03:31:46;98005.94;;;0.19;100.00
21574;BME280;10948;48.706;9.258;2023-01-27T03:34:11;98008.63;;;0.11;100.00
21574;BME280;10948;48.706;9.258;2023-01-27T03:36:36;98008.72;;;0.04;100.00
21574;BME280;10948;48.706;9.258;2023-01-27T03:39:20;98009.44;;;0.15;100.00
21574;BME280;10948;48.706;9.258;2023-01-27T03:42:04;98009.69;;;-0.03;100.00
21574;BME280;10948;48.706;9.258;2023-01-27T03:44:48;98005.47;;;-0.07;100.00
21574;BME280;10948;48.706;9.258;2023-01-27T03:47:32;98013.75;;;0.10;100.00
21574;BME280;10948;48.706;9.258;2023-01-27T03:49:58;98007.03;;;0.03;100.00
21574;BME280;10948;48.706;9.258;2023-01-27T03:52:23;98002.88;;;-0.04;100.00
21574;BME280;10948;48.706;9.258;2023-01-27T03:54:48;98000.44;;;-0.12;100.00
21574;BME280;10948;48.706;9.258;2023-01-27T03:57:14;98003.00;;;-0.12;100.00
21574;BME280;10948;48.706;9.258;2023-01-27T03:59:39;98008.00;;;-0.04;100.00
21574;BME280;10948;48.706;9.258;2023-01-27T04:02:04;98004.66;;;-0.09;100.00
21574;BME280;10948;48.706;9.258;2023-01-27T04:04:48;98012.16;;;0.03;100.00
21574;BME280;10948;48.706;9.258;2023-01-27T04:07:35;98009.84;;;-0.15;100.00
21574;BME280;10948;48.706;9.258;2023-01-27T04:10:01;98009.91;;;-0.18;100.00
21574;BME280;10948;48.706;9.258;2023-01-27T04:12:27;98004.75;;;-0.15;100.00
21574;BME280;10948;48.706;9.258;2023-01-27T04:14:52;98000.28;;;-0.01;100.00
21574;BME280;10948;48.706;9.258;2023-01-27T04:17:17;98002.13;;;-0.11;100.00
21574;BME280;10948;48.706;9.258;2023-01-27T04:19:43;98000.50;;;-0.16;100.00
21574;BME280;10948;48.706;9.258;2023-01-27T04:22:09;98006.53;;;-0.20;100.00
21574;BME280;10948;48.706;9.258;2023-01-27T04:24:34;98006.19;;;0.02;100.00
21574;BME280;10948;48.706;9.258;2023-01-27T04:27:03;98004.50;;;0.01;100.00
21574;BME280;10948;48.706;9.258;2023-01-27T04:29:31;98014.09;;;-0.13;100.00
21574;BME280;10948;48.706;9.258;2023-01-27T04:31:56;98013.16;;;-0.07;100.00
21574;BME280;10948;48.706;9.258;2023-01-27T04:34:22;98014.94;;;-0.12;100.00
21574;BME280;10948;48.706;9.258;2023-01-27T04:36:47;98009.34;;;0.19;100.00
21574;BME280;10948;48.706;9.258;2023-01-27T04:39:13;98004.91;;;-0.27;100.00
21574;BME280;10948;48.706;9.258;2023-01-27T04:41:38;98005.59;;;-0.13;100.00
21574;BME280;10948;48.706;9.258;2023-01-27T04:44:04;98000.16;;;0.08;100.00
21574;BME280;10948;48.706;9.258;2023-01-27T04:46:30;97999.38;;;0.03;100.00
21574;BME280;10948;48.706;9.258;2023-01-27T04:48:55;98007.50;;;0.29;100.00
21574;BME280;10948;48.706;9.258;2023-01-27T04:51:20;98005.28;;;0.06;100.00
21574;BME280;10948;48.706;9.258;2023-01-27T04:53:45;98011.38;;;-0.02;100.00
21574;BME280;10948;48.706;9.258;2023-01-27T04:56:17;98009.75;;;-0.06;100.00
21574;BME280;10948;48.706;9.258;2023-01-27T04:58:43;98014.66;;;0.06;100.00
21574;BME280;10948;48.706;9.258;2023-01-27T05:01:08;98000.41;;;-0.08;100.00
21574;BME280;10948;48.706;9.258;2023-01-27T05:03:34;98001.94;;;0.01;100.00
21574;BME280;10948;48.706;9.258;2023-01-27T05:05:59;98017.50;;;-0.12;100.00
21574;BME280;10948;48.706;9.258;2023-01-27T05:08:24;98019.59;;;0.16;100.00
21574;BME280;10948;48.706;9.258;2023-01-27T05:10:49;98016.41;;;0.04;100.00
21574;BME280;10948;48.706;9.258;2023-01-27T05:13:16;98025.66;;;0.11;100.00
21574;BME280;10948;48.706;9.258;2023-01-27T05:15:41;98021.66;;;-0.05;100.00
21574;BME280;10948;48.706;9.258;2023-01-27T05:18:06;98025.13;;;-0.09;100.00
21574;BME280;10948;48.706;9.258;2023-01-27T05:20:32;98022.94;;;-0.37;100.00
21574;BME280;10948;48.706;9.258;2023-01-27T05:22:57;98028.41;;;-0.01;100.00
21574;BME280;10948;48.706;9.258;2023-01-27T05:25:43;98026.78;;;-0.05;100.00
21574;BME280;10948;48.706;9.258;2023-01-27T05:28:08;98023.25;;;0.02;100.00
21574;BME280;10948;48.706;9.258;2023-01-27T05:30:33;98022.53;;;-0.08;100.00
21574;BME280;10948;48.706;9.258;2023-01-27T05:32:58;98030.22;;;-0.06;100.00
21574;BME280;10948;48.706;9.258;2023-01-27T05:35:23;98040.38;;;-0.03;100.00
21574;BME280;10948;48.706;9.258;2023-01-27T05:37:49;98034.53;;;-0.09;100.00
21574;BME280;10948;48.706;9.258;2023-01-27T05:40:14;98030.97;;;-0.01;100.00
21574;BME280;10948;48.706;9.258;2023-01-27T05:42:39;98030.22;;;-0.06;100.00
21574;BME280;10948;48.706;9.258;2023-01-27T05:45:05;98041.41;;;-0.16;100.00
21574;BME280;10948;48.706;9.258;2023-01-27T05:47:30;98040.47;;;-0.09;100.00
21574;BME280;10948;48.706;9.258;2023-01-27T05:49:56;98041.31;;;-0.08;100.00
21574;BME280;10948;48.706;9.258;2023-01-27T05:52:21;98039.31;;;0.11;100.00
21574;BME280;10948;48.706;9.258;2023-01-27T05:54:46;98049.63;;;0.07;100.00
21574;BME280;10948;48.706;9.258;2023-01-27T05:57:11;98046.09;;;0.14;100.00
21574;BME280;10948;48.706;9.258;2023-01-27T05:59:37;98042.63;;;0.18;100.00
21574;BME280;10948;48.706;9.258;2023-01-27T06:02:02;98042.84;;;0.04;100.00
21574;BME280;10948;48.706;9.258;2023-01-27T06:04:27;98042.94;;;-0.05;100.00
21574;BME280;10948;48.706;9.258;2023-01-27T06:06:52;98039.59;;;-0.08;100.00
21574;BME280;10948;48.706;9.258;2023-01-27T06:09:17;98041.25;;;-0.04;100.00
21574;BME280;10948;48.706;9.258;2023-01-27T06:11:43;98041.00;;;0.12;100.00
21574;BME280;10948;48.706;9.258;2023-01-27T06:14:08;98044.63;;;-0.04;100.00
21574;BME280;10948;48.706;9.258;2023-01-27T06:16:33;98053.94;;;0.02;100.00
21574;BME280;10948;48.706;9.258;2023-01-27T06:18:58;98053.91;;;0.05;100.00
21574;BME280;10948;48.706;9.258;2023-01-27T06:21:24;98059.06;;;0.02;100.00
21574;BME280;10948;48.706;9.258;2023-01-27T06:23:49;98048.94;;;-0.07;100.00
21574;BME280;10948;48.706;9.258;2023-01-27T06:26:15;98054.22;;;-0.17;100.00
21574;BME280;10948;48.706;9.258;2023-01-27T06:28:41;98053.78;;;0.14;100.00
21574;BME280;10948;48.706;9.258;2023-01-27T06:31:07;98049.06;;;-0.13;100.00
21574;BME280;10948;48.706;9.258;2023-01-27T06:33:33;98048.84;;;0.02;100.00
21574;BME280;10948;48.706;9.258;2023-01-27T06:36:18;98043.81;;;-0.04;100.00
21574;BME280;10948;48.706;9.258;2023-01-27T06:38:43;98048.66;;;0.14;100.00
21574;BME280;10948;48.706;9.258;2023-01-27T06:41:09;98049.66;;;0.02;100.00
21574;BME280;10948;48.706;9.258;2023-01-27T06:43:34;98058.06;;;0.12;100.00
21574;BME280;10948;48.706;9.258;2023-01-27T06:46:00;98064.25;;;-0.04;100.00
21574;BME280;10948;48.706;9.258;2023-01-27T06:48:26;98069.88;;;0.19;100.00
21574;BME280;10948;48.706;9.258;2023-01-27T06:50:52;98071.94;;;-0.06;100.00
21574;BME280;10948;48.706;9.258;2023-01-27T06:53:17;98070.19;;;-0.02;100.00
21574;BME280;10948;48.706;9.258;2023-01-27T06:55:43;98080.06;;;0.23;100.00
21574;BME280;10948;48.706;9.258;2023-01-27T06:58:11;98081.34;;;-0.06;100.00
21574;BME280;10948;48.706;9.258;2023-01-27T07:00:37;98094.00;;;0.01;100.00
21574;BME280;10948;48.706;9.258;2023-01-27T07:03:03;98094.72;;;0.11;100.00
21574;BME280;10948;48.706;9.258;2023-01-27T07:05:29;98102.53;;;0.03;100.00
21574;BME280;10948;48.706;9.258;2023-01-27T07:07:54;98102.47;;;0.08;100.00
21574;BME280;10948;48.706;9.258;2023-01-27T07:10:19;98101.66;;;0.03;100.00
21574;BME280;10948;48.706;9.258;2023-01-27T07:12:45;98107.34;;;0.23;100.00
21574;BME280;10948;48.706;9.258;2023-01-27T07:15:10;98112.03;;;-0.06;100.00
21574;BME280;10948;48.706;9.258;2023-01-27T07:17:36;98114.47;;;0.03;100.00
21574;BME280;10948;48.706;9.258;2023-01-27T07:20:02;98117.97;;;-0.07;100.00
21574;BME280;10948;48.706;9.258;2023-01-27T07:22:28;98118.63;;;0.10;100.00
21574;BME280;10948;48.706;9.258;2023-01-27T07:24:53;98119.34;;;0.19;100.00
21574;BME280;10948;48.706;9.258;2023-01-27T07:27:20;98111.69;;;0.18;100.00
21574;BME280;10948;48.706;9.258;2023-01-27T07:29:45;98113.13;;;0.37;100.00
21574;BME280;10948;48.706;9.258;2023-01-27T07:32:10;98108.78;;;0.42;100.00
21574;BME280;10948;48.706;9.258;2023-01-27T07:34:35;98118.25;;;0.37;100.00
21574;BME280;10948;48.706;9.258;2023-01-27T07:37:01;98124.41;;;0.22;100.00
21574;BME280;10948;48.706;9.258;2023-01-27T07:39:26;98122.81;;;0.15;100.00
21574;BME280;10948;48.706;9.258;2023-01-27T07:41:51;98124.22;;;0.37;100.00
21574;BME280;10948;48.706;9.258;2023-01-27T07:44:17;98125.00;;;0.41;100.00
21574;BME280;10948;48.706;9.258;2023-01-27T07:46:42;98131.13;;;0.29;100.00
21574;BME280;10948;48.706;9.258;2023-01-27T07:49:07;98133.66;;;0.34;100.00
21574;BME280;10948;48.706;9.258;2023-01-27T07:51:33;98134.72;;;0.18;100.00
21574;BME280;10948;48.706;9.258;2023-01-27T07:53:58;98137.84;;;0.36;100.00
21574;BME280;10948;48.706;9.258;2023-01-27T07:56:24;98128.41;;;0.41;100.00
21574;BME280;10948;48.706;9.258;2023-01-27T07:58:49;98133.59;;;0.37;100.00
21574;BME280;10948;48.706;9.258;2023-01-27T08:01:17;98139.72;;;0.25;100.00
21574;BME280;10948;48.706;9.258;2023-01-27T08:03:42;98145.72;;;0.24;100.00
21574;BME280;10948;48.706;9.258;2023-01-27T08:06:09;98157.56;;;0.30;100.00
21574;BME280;10948;48.706;9.258;2023-01-27T08:08:34;98153.91;;;0.49;100.00
21574;BME280;10948;48.706;9.258;2023-01-27T08:11:00;98141.97;;;0.48;100.00
21574;BME280;10948;48.706;9.258;2023-01-27T08:13:26;98145.66;;;0.29;100.00
21574;BME280;10948;48.706;9.258;2023-01-27T08:15:55;98140.22;;;0.50;100.00
21574;BME280;10948;48.706;9.258;2023-01-27T08:18:21;98136.06;;;0.41;100.00
21574;BME280;10948;48.706;9.258;2023-01-27T08:20:46;98138.78;;;0.31;100.00
21574;BME280;10948;48.706;9.258;2023-01-27T08:23:11;98141.97;;;0.48;100.00
21574;BME280;10948;48.706;9.258;2023-01-27T08:25:36;98139.81;;;0.21;100.00
21574;BME280;10948;48.706;9.258;2023-01-27T08:28:01;98152.16;;;0.51;100.00
21574;BME280;10948;48.706;9.258;2023-01-27T08:30:27;98157.19;;;0.57;100.00
21574;BME280;10948;48.706;9.258;2023-01-27T08:32:52;98167.66;;;0.39;100.00
21574;BME280;10948;48.706;9.258;2023-01-27T08:35:17;98165.81;;;0.50;100.00
21574;BME280;10948;48.706;9.258;2023-01-27T08:37:44;98160.69;;;0.50;100.00
21574;BME280;10948;48.706;9.258;2023-01-27T08:40:09;98169.28;;;0.46;100.00
21574;BME280;10948;48.706;9.258;2023-01-27T08:42:35;98167.50;;;0.51;100.00
21574;BME280;10948;48.706;9.258;2023-01-27T08:45:00;98167.66;;;0.42;100.00
21574;BME280;10948;48.706;9.258;2023-01-27T08:47:25;98157.56;;;0.30;100.00
21574;BME280;10948;48.706;9.258;2023-01-27T08:49:50;98153.84;;;0.52;100.00
21574;BME280;10948;48.706;9.258;2023-01-27T08:52:18;98161.56;;;0.50;100.00
21574;BME280;10948;48.706;9.258;2023-01-27T08:54:46;98174.31;;;0.52;100.00
21574;BME280;10948;48.706;9.258;2023-01-27T08:57:13;98169.25;;;0.49;100.00
21574;BME280;10948;48.706;9.258;2023-01-27T08:59:38;98177.19;;;0.29;100.00
21574;BME280;10948;48.706;9.258;2023-01-27T09:02:03;98176.19;;;0.41;100.00
21574;BME280;10948;48.706;9.258;2023-01-27T09:04:29;98179.50;;;0.46;100.00
21574;BME280;10948;48.706;9.258;2023-01-27T09:06:55;98183.03;;;0.40;100.00
21574;BME280;10948;48.706;9.258;2023-01-27T09:09:20;98177.91;;;0.39;100.00
21574;BME280;10948;48.706;9.258;2023-01-27T09:11:45;98174.50;;;0.40;100.00
21574;BME280;10948;48.706;9.258;2023-01-27T09:14:11;98175.97;;;0.56;100.00
21574;BME280;10948;48.706;9.258;2023-01-27T09:16:37;98166.69;;;0.49;100.00
21574;BME280;10948;48.706;9.258;2023-01-27T09:19:03;98169.09;;;0.58;100.00
21574;BME280;10948;48.706;9.258;2023-01-27T09:21:28;98170.16;;;0.45;100.00
21574;BME280;10948;48.706;9.258;2023-01-27T09:23:55;98167.66;;;0.39;100.00
21574;BME280;10948;48.706;9.258;2023-01-27T09:26:20;98164.00;;;0.56;100.00
21574;BME280;10948;48.706;9.258;2023-01-27T09:28:45;98176.13;;;0.47;100.00
21574;BME280;10948;48.706;9.258;2023-01-27T09:31:10;98165.72;;;0.57;100.00
21574;BME280;10948;48.706;9.258;2023-01-27T09:33:36;98170.00;;;0.55;100.00
21574;BME280;10948;48.706;9.258;2023-01-27T09:36:05;98171.03;;;0.44;100.00
21574;BME280;10948;48.706;9.258;2023-01-27T09:38:34;98168.16;;;0.65;100.00
21574;BME280;10948;48.706;9.258;2023-01-27T09:46:43;98181.91;;;0.58;100.00
21574;BME280;10948;48.706;9.258;2023-01-27T09:56:34;98179.19;;;0.70;100.00
21574;BME280;10948;48.706;9.258;2023-01-27T10:06:44;98180.16;;;0.61;100.00
21574;BME280;10948;48.706;9.258;2023-01-27T10:09:34;98171.66;;;0.61;100.00
21574;BME280;10948;48.706;9.258;2023-01-27T10:14:35;98181.41;;;0.92;100.00
21574;BME280;10948;48.706;9.258;2023-01-27T10:22:10;98187.25;;;0.99;100.00
21574;BME280;10948;48.706;9.258;2023-01-27T10:24:49;98178.75;;;0.98;100.00
21574;BME280;10948;48.706;9.258;2023-01-27T10:27:22;98175.22;;;1.04;100.00
21574;BME280;10948;48.706;9.258;2023-01-27T10:32:42;98186.06;;;1.19;100.00
21574;BME280;10948;48.706;9.258;2023-01-27T10:35:12;98191.25;;;1.16;100.00
21574;BME280;10948;48.706;9.258;2023-01-27T10:45:26;98193.94;;;1.07;100.00
21574;BME280;10948;48.706;9.258;2023-01-27T10:47:58;98190.75;;;0.95;100.00
21574;BME280;10948;48.706;9.258;2023-01-27T10:50:29;98199.31;;;0.94;100.00
21574;BME280;10948;48.706;9.258;2023-01-27T10:53:00;98196.91;;;0.83;100.00
21574;BME280;10948;48.706;9.258;2023-01-27T10:55:36;98194.09;;;1.00;100.00
21574;BME280;10948;48.706;9.258;2023-01-27T10:58:05;98190.72;;;0.96;100.00
21574;BME280;10948;48.706;9.258;2023-01-27T11:00:49;98193.88;;;1.12;100.00
21574;BME280;10948;48.706;9.258;2023-01-27T11:03:31;98191.88;;;1.29;100.00
21574;BME280;10948;48.706;9.258;2023-01-27T11:06:02;98187.16;;;1.05;100.00
21574;BME280;10948;48.706;9.258;2023-01-27T11:08:31;98188.66;;;1.18;100.00
21574;BME280;10948;48.706;9.258;2023-01-27T11:10:59;98179.19;;;1.21;100.00
21574;BME280;10948;48.706;9.258;2023-01-27T11:13:45;98184.00;;;1.41;100.00
21574;BME280;10948;48.706;9.258;2023-01-27T11:16:14;98178.38;;;1.21;100.00
21574;BME280;10948;48.706;9.258;2023-01-27T11:18:40;98179.84;;;1.34;100.00
21574;BME280;10948;48.706;9.258;2023-01-27T11:23:42;98177.06;;;1.46;100.00
21574;BME280;10948;48.706;9.258;2023-01-27T11:26:21;98180.75;;;1.30;100.00
21574;BME280;10948;48.706;9.258;2023-01-27T11:28:51;98181.63;;;1.29;100.00
21574;BME280;10948;48.706;9.258;2023-01-27T11:33:54;98181.56;;;1.33;100.00
21574;BME280;10948;48.706;9.258;2023-01-27T11:36:25;98173.09;;;1.28;100.00
21574;BME280;10948;48.706;9.258;2023-01-27T11:38:51;98162.31;;;1.11;100.00
21574;BME280;10948;48.706;9.258;2023-01-27T11:41:16;98161.25;;;1.23;100.00
21574;BME280;10948;48.706;9.258;2023-01-27T11:43:42;98162.94;;;1.24;100.00
21574;BME280;10948;48.706;9.258;2023-01-27T11:46:09;98164.56;;;1.28;100.00
21574;BME280;10948;48.706;9.258;2023-01-27T11:48:40;98167.34;;;1.16;100.00
21574;BME280;10948;48.706;9.258;2023-01-27T11:51:12;98161.25;;;1.21;100.00
21574;BME280;10948;48.706;9.258;2023-01-27T11:53:37;98157.72;;;1.28;100.00
21574;BME280;10948;48.706;9.258;2023-01-27T11:56:07;98162.69;;;1.37;100.00
21574;BME280;10948;48.706;9.258;2023-01-27T11:58:40;98157.31;;;1.51;100.00
21574;BME280;10948;48.706;9.258;2023-01-27T12:01:51;98157.38;;;1.48;100.00
21574;BME280;10948;48.706;9.258;2023-01-27T12:04:03;98153.97;;;1.46;100.00
21574;BME280;10948;48.706;9.258;2023-01-27T12:06:39;98150.81;;;1.33;100.00
21574;BME280;10948;48.706;9.258;2023-01-27T12:09:11;98151.72;;;1.29;100.00
21574;BME280;10948;48.706;9.258;2023-01-27T12:11:56;98145.94;;;1.20;100.00
21574;BME280;10948;48.706;9.258;2023-01-27T12:14:32;98139.72;;;1.33;100.00
21574;BME280;10948;48.706;9.258;2023-01-27T12:16:58;98146.13;;;1.55;100.00
21574;BME280;10948;48.706;9.258;2023-01-27T12:19:26;98146.44;;;1.38;100.00
21574;BME280;10948;48.706;9.258;2023-01-27T12:21:54;98141.94;;;1.51;100.00
21574;BME280;10948;48.706;9.258;2023-01-27T12:24:26;98146.44;;;1.38;100.00
21574;BME280;10948;48.706;9.258;2023-01-27T12:26:52;98144.66;;;1.42;100.00
21574;BME280;10948;48.706;9.258;2023-01-27T12:29:19;98144.59;;;1.45;100.00
21574;BME280;10948;48.706;9.258;2023-01-27T12:31:48;98143.50;;;1.58;100.00
21574;BME280;10948;48.706;9.258;2023-01-27T12:34:26;98143.91;;;1.35;100.00
21574;BME280;10948;48.706;9.258;2023-01-27T12:36:52;98144.50;;;1.51;100.00
21574;BME280;10948;48.706;9.258;2023-01-27T12:39:25;98149.69;;;1.48;100.00
21574;BME280;10948;48.706;9.258;2023-01-27T12:41:54;98140.63;;;1.29;100.00
21574;BME280;10948;48.706;9.258;2023-01-27T12:44:20;98145.44;;;1.47;100.00
21574;BME280;10948;48.706;9.258;2023-01-27T12:47:00;98141.06;;;1.52;100.00
21574;BME280;10948;48.706;9.258;2023-01-27T12:49:36;98134.00;;;1.64;100.00
21574;BME280;10948;48.706;9.258;2023-01-27T12:52:08;98135.91;;;1.53;100.00
21574;BME280;10948;48.706;9.258;2023-01-27T12:54:40;98129.81;;;1.59;100.00
21574;BME280;10948;48.706;9.258;2023-01-27T12:57:10;98122.84;;;1.65;100.00
21574;BME280;10948;48.706;9.258;2023-01-27T12:59:39;98125.31;;;1.71;100.00
21574;BME280;10948;48.706;9.258;2023-01-27T13:02:24;98121.13;;;1.66;100.00
21574;BME280;10948;48.706;9.258;2023-01-27T13:07:16;98121.97;;;1.66;100.00
21574;BME280;10948;48.706;9.258;2023-01-27T13:09:51;98132.91;;;1.74;100.00
21574;BME280;10948;48.706;9.258;2023-01-27T13:12:25;98127.69;;;1.79;100.00
21574;BME280;10948;48.706;9.258;2023-01-27T13:17:41;98131.94;;;1.81;100.00
21574;BME280;10948;48.706;9.258;2023-01-27T13:20:18;98121.84;;;1.72;100.00
21574;BME280;10948;48.706;9.258;2023-01-27T13:22:49;98123.50;;;1.76;100.00
21574;BME280;10948;48.706;9.258;2023-01-27T13:25:17;98131.22;;;1.75;100.00
21574;BME280;10948;48.706;9.258;2023-01-27T13:27:45;98121.84;;;1.72;100.00
21574;BME280;10948;48.706;9.258;2023-01-27T13:30:14;98120.06;;;1.77;100.00
21574;BME280;10948;48.706;9.258;2023-01-27T13:32:40;98122.72;;;1.73;100.00
21574;BME280;10948;48.706;9.258;2023-01-27T13:37:50;98135.28;;;1.85;100.00
21574;BME280;10948;48.706;9.258;2023-01-27T13:48:00;98150.31;;;1.59;100.00
21574;BME280;10948;48.706;9.258;2023-01-27T13:50:38;98152.06;;;1.57;100.00
21574;BME280;10948;48.706;9.258;2023-01-27T13:53:07;98145.91;;;1.67;100.00
21574;BME280;10948;48.706;9.258;2023-01-27T13:55:47;98152.16;;;1.54;100.00
21574;BME280;10948;48.706;9.258;2023-01-27T14:03:34;98160.94;;;1.41;100.00
21574;BME280;10948;48.706;9.258;2023-01-27T14:21:49;98174.63;;;1.40;100.00
21574;BME280;10948;48.706;9.258;2023-01-27T14:45:13;98183.13;;;1.42;100.00
21574;BME280;10948;48.706;9.258;2023-01-27T14:50:30;98186.75;;;1.29;100.00
21574;BME280;10948;48.706;9.258;2023-01-27T15:08:31;98190.31;;;1.22;100.00